Time;durP1;ratioP1;P1;durP2;ratioP2;P2;SDS_P1;SDS_P2;PMS_P1;PMS_P2;Temp;Humidity;BMP_temperature;BMP_pressure;BME280_temperature;BME280_humidity;BME280_pressure;Samples;Min_cycle;Max_cycle;Signal;HPM_P1;HPM_P2
2021/04/29 00:01:08;;;;;;;11.30;6.53;;;;;;;5.18;60.82;99669.56;3483763;28;20049;-49
2021/04/29 00:02:49;;;;;;;8.98;6.45;;;;;;;5.15;59.38;99661.75;3478761;28;20045;-48
2021/04/29 00:04:31;;;;;;;9.07;6.32;;;;;;;5.14;59.49;99666.00;3480582;28;20426;-49
2021/04/29 00:06:13;;;;;;;9.77;6.13;;;;;;;5.12;59.59;99665.09;3481293;28;20049;-43
2021/04/29 00:07:54;;;;;;;10.38;6.25;;;;;;;5.11;58.80;99662.44;3481558;28;20124;-43
2021/04/29 00:09:36;;;;;;;9.73;6.18;;;;;;;5.10;57.62;99664.16;3482486;28;20080;-44
2021/04/29 00:11:17;;;;;;;8.73;5.82;;;;;;;5.10;58.84;99669.31;3478981;28;20056;-43
2021/04/29 00:12:59;;;;;;;8.95;5.93;;;;;;;5.11;58.47;99665.94;3482088;28;20056;-43
2021/04/29 00:14:41;;;;;;;9.70;5.97;;;;;;;5.11;58.76;99665.03;3480030;28;20049;-43
2021/04/29 00:16:22;;;;;;;8.38;5.75;;;;;;;5.11;58.83;99665.94;3481860;28;20064;-44
2021/04/29 00:18:04;;;;;;;9.68;6.90;;;;;;;5.10;59.85;99661.59;3481670;28;20057;-43
2021/04/29 00:19:46;;;;;;;12.98;6.40;;;;;;;5.08;58.97;99662.38;3480275;28;20049;-45
2021/04/29 00:21:27;;;;;;;9.52;6.57;;;;;;;5.07;60.14;99660.59;3482192;28;20422;-44
2021/04/29 00:23:08;;;;;;;11.48;6.15;;;;;;;5.05;59.70;99657.13;3479895;28;20056;-44
2021/04/29 00:24:49;;;;;;;9.43;5.78;;;;;;;5.04;59.82;99656.25;3483342;28;20056;-44
2021/04/29 00:26:31;;;;;;;10.77;7.00;;;;;;;5.04;60.92;99656.25;3479953;28;20056;-44
2021/04/29 00:28:12;;;;;;;11.02;6.13;;;;;;;5.02;61.34;99657.84;3482366;28;20048;-43
2021/04/29 00:29:54;;;;;;;9.73;6.35;;;;;;;5.02;61.48;99657.84;3481287;28;20053;-44
2021/04/29 00:31:36;;;;;;;9.10;6.00;;;;;;;5.00;61.01;99654.38;3480118;28;20048;-44
2021/04/29 00:33:17;;;;;;;9.05;5.97;;;;;;;4.99;60.16;99657.78;3483318;28;20048;-48
2021/04/29 00:34:59;;;;;;;9.30;5.72;;;;;;;4.96;59.84;99653.38;3478753;28;20048;-49
2021/04/29 00:36:40;;;;;;;7.97;5.75;;;;;;;4.96;60.92;99652.50;3483163;28;20537;-49
2021/04/29 00:38:21;;;;;;;10.75;6.25;;;;;;;4.96;61.39;99661.09;3478426;28;20052;-50
2021/04/29 00:40:04;;;;;;;8.65;6.55;;;;;;;4.94;61.13;99660.16;3482175;28;20053;-50
2021/04/29 00:41:46;;;;;;;12.40;6.70;;;;;;;4.93;62.58;99660.09;3481291;28;20057;-49
2021/04/29 00:43:27;;;;;;;11.77;6.45;;;;;;;4.90;63.03;99657.41;3479898;28;20057;-48
2021/04/29 00:45:12;;;;;;;7.95;5.60;;;;;;;4.87;61.34;99649.63;3483292;28;20044;-48
2021/04/29 00:46:56;;;;;;;9.60;6.35;;;;;;;4.85;62.50;99649.56;3479645;28;20072;-50
2021/04/29 00:48:37;;;;;;;;;;;;;;;4.83;61.70;99651.22;3483863;28;20126;-50
2021/04/29 00:50:23;;;;;;;8.82;6.72;;;;;;;4.83;62.06;99651.22;3478351;28;20404;-49
2021/04/29 00:52:05;;;;;;;10.25;6.22;;;;;;;4.82;60.89;99652.00;3480997;28;20481;-50
2021/04/29 00:53:47;;;;;;;9.75;6.22;;;;;;;4.82;62.54;99648.56;3480596;28;20056;-49
2021/04/29 00:55:29;;;;;;;9.68;6.22;;;;;;;4.83;62.73;99656.34;3478353;28;20464;-49
2021/04/29 00:57:10;;;;;;;10.95;6.47;;;;;;;4.82;62.63;99653.72;3469412;28;20084;-48
2021/04/29 00:58:52;;;;;;;9.82;6.30;;;;;;;4.79;62.37;99650.22;3474619;28;20422;-49
2021/04/29 01:00:37;;;;;;;9.70;6.63;;;;;;;4.78;62.34;99657.88;3483065;28;20057;-48
2021/04/29 01:02:23;;;;;;;9.48;6.45;;;;;;;4.77;63.42;99645.81;3477430;28;20055;-48
2021/04/29 01:04:11;;;;;;;9.90;6.45;;;;;;;4.76;62.20;99650.09;3480929;28;20135;-49
2021/04/29 01:05:57;;;;;;;9.88;7.28;;;;;;;4.76;63.32;99647.53;3481741;28;20079;-49
2021/04/29 01:07:41;;;;;;;8.70;6.72;;;;;;;4.74;63.33;99648.28;3479823;28;20084;-49
2021/04/29 01:09:27;;;;;;;10.73;6.95;;;;;;;4.74;63.89;99648.28;3482823;28;20122;-49
2021/04/29 01:11:12;;;;;;;8.98;6.63;;;;;;;4.73;63.94;99647.41;3479468;28;20072;-48
2021/04/29 01:12:58;;;;;;;8.75;6.70;;;;;;;4.73;63.01;99644.84;3481075;28;20044;-48
2021/04/29 01:14:40;;;;;;;10.60;7.25;;;;;;;4.72;62.77;99647.34;3481141;28;20091;-49
2021/04/29 01:16:24;;;;;;;10.05;6.65;;;;;;;4.70;62.09;99649.88;3477963;28;20049;-48
2021/04/29 01:18:07;;;;;;;11.05;6.63;;;;;;;4.69;62.26;99652.38;3482662;28;20060;-49
2021/04/29 01:19:55;;;;;;;10.20;6.25;;;;;;;4.68;61.62;99645.50;3479715;28;20142;-49
2021/04/29 01:21:37;;;;;;;8.48;6.00;;;;;;;4.65;61.32;99637.66;3480271;28;20567;-49
2021/04/29 01:23:26;;;;;;;10.75;6.63;;;;;;;4.65;62.88;99642.81;3480535;28;20418;-47
2021/04/29 01:25:11;;;;;;;11.73;6.97;;;;;;;4.63;63.24;99644.44;3479423;28;20045;-49
2021/04/29 01:26:54;;;;;;;9.65;6.25;;;;;;;4.63;64.12;99641.88;3482847;28;20059;-48
2021/04/29 01:28:36;;;;;;;8.60;6.45;;;;;;;4.62;63.72;99643.59;3474843;28;20060;-49
2021/04/29 01:30:18;;;;;;;11.90;6.80;;;;;;;4.62;64.07;99648.72;3468563;28;20442;-48
2021/04/29 01:32:01;;;;;;;12.77;7.13;;;;;;;4.61;63.48;99641.81;3478390;28;20430;-49
2021/04/29 01:33:44;;;;;;;9.77;6.70;;;;;;;4.58;62.74;99645.16;3480650;28;20049;-49
2021/04/29 01:35:27;;;;;;;9.90;5.72;;;;;;;4.56;62.98;99646.78;3481296;28;20110;-48
2021/04/29 01:37:09;;;;;;;10.32;6.72;;;;;;;4.53;63.00;99644.13;3477594;28;20068;-49
2021/04/29 01:38:51;;;;;;;8.20;6.03;;;;;;;4.51;62.61;99645.75;3482682;28;20052;-49
2021/04/29 01:40:32;;;;;;;10.55;6.50;;;;;;;4.50;63.53;99646.56;3478166;28;20049;-51
2021/04/29 01:42:15;;;;;;;11.55;7.50;;;;;;;4.49;64.16;99646.50;3482200;28;20091;-48
2021/04/29 01:43:57;;;;;;;10.27;6.75;;;;;;;4.46;62.55;99646.38;3478341;28;20502;-49
2021/04/29 01:45:41;;;;;;;10.95;7.13;;;;;;;4.42;62.99;99642.81;3480625;28;20099;-48
2021/04/29 01:47:23;;;;;;;11.63;7.60;;;;;;;4.38;63.15;99643.53;3481175;28;20048;-48
2021/04/29 01:49:06;;;;;;;9.40;6.55;;;;;;;4.34;63.15;99647.69;3477792;28;20528;-48
2021/04/29 01:50:47;;;;;;;10.35;6.57;;;;;;;4.32;64.25;99653.56;3482861;28;20088;-48
2021/04/29 01:52:29;;;;;;;9.80;6.80;;;;;;;4.30;63.69;99650.97;3479035;28;20048;-48
2021/04/29 01:54:12;;;;;;;9.70;6.47;;;;;;;4.29;64.04;99650.91;3481962;28;20068;-49
2021/04/29 01:55:55;;;;;;;12.38;7.15;;;;;;;4.25;64.56;99642.19;3480164;28;20049;-48
2021/04/29 01:57:37;;;;;;;11.15;7.00;;;;;;;4.24;64.39;99650.72;3477266;28;20050;-48
2021/04/29 01:59:19;;;;;;;12.40;7.13;;;;;;;4.22;66.01;99650.66;3481896;28;20071;-48
2021/04/29 02:01:01;;;;;;;11.77;7.30;;;;;;;4.23;66.35;99654.09;3478963;28;20053;-48
2021/04/29 02:02:42;;;;;;;9.52;6.70;;;;;;;4.20;66.08;99652.28;3482466;28;20534;-49
2021/04/29 02:04:23;;;;;;;11.32;7.10;;;;;;;4.20;66.69;99654.84;3477559;28;20064;-47
2021/04/29 02:06:05;;;;;;;10.15;6.90;;;;;;;4.19;66.18;99655.69;3481170;28;20106;-51
2021/04/29 02:07:46;;;;;;;10.85;7.13;;;;;;;4.19;65.77;99655.69;3480058;28;20048;-48
2021/04/29 02:09:28;;;;;;;10.00;7.13;;;;;;;4.16;65.69;99662.34;3477671;28;20045;-49
2021/04/29 02:11:10;;;;;;;12.13;6.65;;;;;;;4.16;66.20;99658.13;3481989;28;20053;-48
2021/04/29 02:12:56;;;;;;;10.50;6.70;;;;;;;4.14;65.10;99658.84;3479615;28;20045;-49
2021/04/29 02:14:41;;;;;;;9.40;6.80;;;;;;;4.13;66.08;99662.25;3483317;28;20475;-47
2021/04/29 02:16:33;;;;;;;9.63;6.88;;;;;;;4.10;65.29;99663.00;3481559;28;20052;-50
2021/04/29 02:18:18;;;;;;;10.13;7.18;;;;;;;4.08;65.87;99663.78;3482679;28;21250;-43
2021/04/29 02:20:02;;;;;;;10.07;7.18;;;;;;;4.06;67.03;99655.13;3483438;28;20060;-44
2021/04/29 02:21:47;;;;;;;8.85;6.80;;;;;;;4.03;65.84;99655.88;3481550;28;20053;-43
2021/04/29 02:23:28;;;;;;;12.80;8.05;;;;;;;4.01;67.24;99654.94;3484402;28;20056;-43
2021/04/29 02:25:12;;;;;;;13.27;7.50;;;;;;;3.98;65.96;99657.38;3481567;28;20044;-43
2021/04/29 02:26:54;;;;;;;;;;;;;;;3.96;66.61;99659.88;3483047;28;20046;-43
2021/04/29 02:28:36;;;;;;;12.48;7.30;;;;;;;3.94;66.57;99663.22;3483267;28;20412;-43
2021/04/29 02:30:19;;;;;;;15.48;8.80;;;;;;;3.90;66.60;99658.78;3481268;28;20068;-43
2021/04/29 02:32:00;;;;;;;14.43;9.20;;;;;;;3.88;67.79;99668.09;3484731;28;20079;-44
2021/04/29 02:33:43;;;;;;;12.00;8.88;;;;;;;3.85;67.51;99661.16;3481183;28;20084;-43
2021/04/29 02:35:25;;;;;;;14.02;8.68;;;;;;;3.83;67.77;99666.22;3484070;28;20055;-44
2021/04/29 02:37:06;;;;;;;13.52;8.25;;;;;;;3.80;67.36;99663.53;3481363;28;20048;-44
2021/04/29 02:38:48;;;;;;;13.38;8.60;;;;;;;3.79;67.41;99664.34;3482049;28;20235;-48
2021/04/29 02:40:30;;;;;;;11.45;7.18;;;;;;;3.78;66.55;99662.59;3483258;28;20049;-49
2021/04/29 02:42:19;;;;;;;10.75;7.82;;;;;;;3.79;66.66;99660.94;3480920;28;20079;-48
2021/04/29 02:44:03;;;;;;;16.88;9.10;;;;;;;3.79;67.43;99661.78;3484383;28;20518;-50
2021/04/29 02:45:45;;;;;;;15.73;8.85;;;;;;;3.82;67.80;99664.50;3479693;28;20053;-49
2021/04/29 02:47:27;;;;;;;12.60;8.50;;;;;;;3.83;67.71;99667.94;3482752;28;20057;-50
2021/04/29 02:49:10;;;;;;;12.60;8.32;;;;;;;3.83;67.53;99662.78;3481838;28;20155;-49
2021/04/29 02:50:52;;;;;;;13.75;8.10;;;;;;;3.82;66.66;99661.94;3482052;28;20055;-50
2021/04/29 02:52:33;;;;;;;15.60;8.63;;;;;;;3.83;67.29;99662.78;3470395;28;20534;-49
2021/04/29 02:54:16;;;;;;;13.27;8.95;;;;;;;3.86;68.63;99655.22;3475717;28;20056;-49
2021/04/29 02:55:58;;;;;;;16.77;9.80;;;;;;;3.87;69.08;99654.41;3484695;28;20053;-50
2021/04/29 02:57:39;;;;;;;13.77;9.10;;;;;;;3.88;68.93;99653.59;3480909;28;20049;-49
2021/04/29 02:59:21;;;;;;;14.40;9.75;;;;;;;3.91;69.52;99657.94;3482473;28;20607;-51
2021/04/29 03:01:03;;;;;;;12.73;9.07;;;;;;;3.91;69.92;99656.28;3482702;28;20049;-49
2021/04/29 03:02:44;;;;;;;15.20;9.88;;;;;;;3.92;69.77;99654.59;3480999;28;20049;-48
2021/04/29 03:04:26;;;;;;;14.40;9.93;;;;;;;3.93;69.72;99659.78;3484165;28;20076;-50
2021/04/29 03:06:07;;;;;;;13.43;8.75;;;;;;;3.93;68.86;99659.78;3479325;28;20540;-49
2021/04/29 03:07:48;;;;;;;14.02;8.70;;;;;;;3.94;68.34;99664.09;3484445;28;20049;-51
2021/04/29 03:09:31;;;;;;;16.85;7.90;;;;;;;3.95;67.13;99659.84;3480712;28;20052;-49
2021/04/29 03:11:12;;;;;;;12.80;8.30;;;;;;;3.95;66.08;99654.72;3482161;28;20056;-49
2021/04/29 03:12:54;;;;;;;14.75;9.32;;;;;;;3.95;66.56;99650.44;3482572;28;20502;-49
2021/04/29 03:14:36;;;;;;;15.45;8.82;;;;;;;3.97;66.63;99656.50;3479227;28;20053;-50
2021/04/29 03:16:17;;;;;;;11.70;8.60;;;;;;;3.99;66.79;99664.28;3484219;28;20142;-51
2021/04/29 03:17:58;;;;;;;15.27;8.93;;;;;;;4.01;67.50;99658.38;3479132;28;20041;-50
2021/04/29 03:19:53;;;;;;;13.68;9.02;;;;;;;4.04;67.70;99662.78;3483034;28;20048;-51
2021/04/29 03:21:34;;;;;;;11.40;8.38;;;;;;;4.07;67.97;99669.72;3473167;28;20509;-49
2021/04/29 03:23:16;;;;;;;15.10;10.10;;;;;;;4.08;67.03;99659.50;3471998;28;20053;-48
2021/04/29 03:24:57;;;;;;;16.08;9.38;;;;;;;4.11;67.60;99667.34;3481544;28;20056;-49
2021/04/29 03:26:38;;;;;;;12.27;8.00;;;;;;;4.13;66.91;99669.97;3479835;28;20049;-51
2021/04/29 03:28:20;;;;;;;12.43;8.13;;;;;;;4.15;67.12;99665.75;3470302;28;20053;-49
2021/04/29 03:30:03;;;;;;;12.50;8.18;;;;;;;4.19;66.46;99673.66;3476414;28;20131;-50
2021/04/29 03:31:44;;;;;;;13.13;8.73;;;;;;;4.23;67.31;99666.94;3483540;28;20052;-50
2021/04/29 03:33:26;;;;;;;13.63;8.60;;;;;;;4.30;66.93;99668.03;3473188;28;20071;-50
2021/04/29 03:35:08;;;;;;;12.30;7.63;;;;;;;4.33;66.45;99661.31;3471876;28;20057;-51
2021/04/29 03:36:49;;;;;;;12.98;8.00;;;;;;;4.40;64.82;99665.00;3482669;28;20063;-44
2021/04/29 03:38:31;;;;;;;12.80;8.05;;;;;;;4.46;65.71;99666.94;3480419;28;20056;-45
2021/04/29 03:40:13;;;;;;;11.32;7.60;;;;;;;4.52;66.50;99664.59;3483910;28;20089;-45
2021/04/29 03:41:54;;;;;;;15.27;8.27;;;;;;;4.58;65.72;99673.44;3479284;28;20087;-44
2021/04/29 03:43:36;;;;;;;10.43;7.25;;;;;;;4.64;65.03;99669.34;3483342;28;20652;-44
2021/04/29 03:45:18;;;;;;;10.88;7.20;;;;;;;4.68;65.60;99663.47;3480820;28;20053;-44
2021/04/29 03:46:59;;;;;;;12.23;8.30;;;;;;;4.71;65.53;99669.63;3481151;28;20046;-44
2021/04/29 03:48:41;;;;;;;11.65;8.63;;;;;;;4.76;66.06;99673.22;3482397;28;20049;-44
2021/04/29 03:50:22;;;;;;;13.50;8.50;;;;;;;4.80;65.75;99672.50;3480216;28;20567;-44
2021/04/29 03:52:04;;;;;;;10.70;8.10;;;;;;;4.87;66.11;99670.19;3483634;28;20118;-45
2021/04/29 03:53:47;;;;;;;9.27;7.15;;;;;;;4.94;64.32;99672.16;3479308;28;20056;-44
2021/04/29 03:55:28;;;;;;;11.32;7.97;;;;;;;4.98;65.34;99671.44;3483165;28;20053;-44
2021/04/29 03:57:10;;;;;;;12.63;7.18;;;;;;;5.02;64.69;99667.28;3480740;28;20056;-44
2021/04/29 03:58:51;;;;;;;12.45;7.68;;;;;;;5.07;63.55;99666.63;3481042;28;20049;-44
2021/04/29 04:00:33;;;;;;;13.82;8.43;;;;;;;5.15;64.96;99667.78;3481828;28;20053;-44
2021/04/29 04:02:14;;;;;;;17.08;8.88;;;;;;;5.25;65.83;99668.94;3480064;28;20045;-44
2021/04/29 04:03:56;;;;;;;12.77;8.80;;;;;;;5.33;65.43;99675.25;3483755;28;20053;-45
2021/04/29 04:05:37;;;;;;;12.68;7.78;;;;;;;5.41;63.64;99670.34;3480119;28;20479;-45
2021/04/29 04:07:19;;;;;;;11.10;7.55;;;;;;;5.50;63.20;99669.78;3482592;28;20056;-44
2021/04/29 04:09:00;;;;;;;16.02;8.40;;;;;;;5.55;64.15;99674.28;3479993;28;20059;-44
2021/04/29 04:10:41;;;;;;;12.65;7.50;;;;;;;5.61;63.55;99675.34;3481351;28;20064;-44
2021/04/29 04:12:23;;;;;;;11.63;7.65;;;;;;;5.65;63.55;99674.59;3481414;28;20076;-44
2021/04/29 04:14:04;;;;;;;10.88;7.60;;;;;;;5.69;63.02;99674.72;3478634;28;20049;-44
2021/04/29 04:15:47;;;;;;;9.80;7.25;;;;;;;5.75;62.87;99672.38;3483593;28;20056;-44
2021/04/29 04:17:28;;;;;;;10.32;7.68;;;;;;;5.82;62.66;99673.47;3479306;28;20052;-45
2021/04/29 04:19:29;;;;;;;12.35;8.65;;;;;;;5.91;63.72;99672.88;3480240;28;20045;-43
2021/04/29 04:21:11;;;;;;;11.77;7.57;;;;;;;6.00;63.43;99674.88;3481880;28;20052;-44
2021/04/29 04:22:52;;;;;;;13.27;8.95;;;;;;;6.08;63.89;99669.16;3479129;28;20045;-44
2021/04/29 04:24:33;;;;;;;11.70;6.75;;;;;;;6.20;61.81;99660.91;3469825;28;20045;-45
2021/04/29 04:26:15;;;;;;;11.82;7.70;;;;;;;6.34;63.06;99663.06;3473069;28;20068;-45
2021/04/29 04:27:56;;;;;;;11.40;7.15;;;;;;;6.45;62.86;99667.72;3469765;28;20485;-44
2021/04/29 04:29:38;;;;;;;12.27;7.72;;;;;;;6.61;63.12;99663.88;3478304;28;20045;-45
2021/04/29 04:31:20;;;;;;;10.65;7.60;;;;;;;6.75;62.60;99658.25;3481197;28;20053;-45
2021/04/29 04:33:02;;;;;;;10.70;7.57;;;;;;;6.86;62.15;99662.88;3480581;28;20057;-44
2021/04/29 04:34:43;;;;;;;9.82;6.55;;;;;;;6.95;61.25;99663.94;3479963;28;20057;-44
2021/04/29 04:36:24;;;;;;;11.00;7.43;;;;;;;7.01;61.46;99659.88;3483179;28;20077;-46
2021/04/29 04:38:06;;;;;;;11.13;6.93;;;;;;;7.06;61.17;99663.47;3478501;28;20471;-45
2021/04/29 04:39:47;;;;;;;10.57;6.85;;;;;;;7.11;60.40;99663.59;3483425;28;20060;-49
2021/04/29 04:41:29;;;;;;;12.60;7.72;;;;;;;7.13;61.39;99661.94;3479659;28;20073;-51
2021/04/29 04:43:10;;;;;;;12.73;7.80;;;;;;;7.16;61.62;99667.19;3481267;28;20053;-49
2021/04/29 04:44:51;;;;;;;10.65;6.63;;;;;;;7.20;61.46;99665.56;3481680;28;20057;-52
2021/04/29 04:46:33;;;;;;;10.48;6.82;;;;;;;7.22;60.59;99664.75;3480493;28;20506;-52
2021/04/29 04:48:15;;;;;;;8.30;6.20;;;;;;;7.24;60.14;99668.25;3482550;28;20584;-52
2021/04/29 04:49:57;;;;;;;10.68;7.35;;;;;;;7.25;60.87;99659.69;3479615;28;20507;-49
2021/04/29 04:51:38;;;;;;;9.48;6.50;;;;;;;7.28;60.15;99660.59;3483362;28;20080;-50
2021/04/29 04:53:20;;;;;;;10.35;6.47;;;;;;;7.30;59.76;99664.97;3479835;28;20059;-50
2021/04/29 04:55:01;;;;;;;12.38;6.82;;;;;;;7.34;60.62;99671.97;3480921;28;20052;-53
2021/04/29 04:56:45;;;;;;;7.88;6.22;;;;;;;7.36;60.54;99666.84;3481586;28;20060;-54
2021/04/29 04:58:26;;;;;;;9.32;7.45;;;;;;;7.38;61.46;99670.31;3479758;28;20040;-50
2021/04/29 05:00:09;;;;;;;11.70;7.10;;;;;;;7.38;61.53;99666.03;3483327;28;20421;-45
2021/04/29 05:01:51;;;;;;;11.18;7.97;;;;;;;7.36;62.29;99672.88;3479703;28;20486;-44
2021/04/29 05:03:32;;;;;;;13.18;7.72;;;;;;;7.36;62.04;99672.00;3482999;28;20099;-45
2021/04/29 05:05:14;;;;;;;11.60;8.13;;;;;;;7.38;61.48;99665.16;3478332;28;20057;-45
2021/04/29 05:06:56;;;;;;;11.57;7.75;;;;;;;7.40;61.54;99671.25;3479764;28;20143;-44
2021/04/29 05:08:37;;;;;;;11.48;7.55;;;;;;;7.41;61.51;99668.69;3481472;28;20084;-45
2021/04/29 05:10:20;;;;;;;11.07;7.25;;;;;;;7.44;61.69;99671.38;3478238;28;20061;-44
2021/04/29 05:12:01;;;;;;;12.63;7.25;;;;;;;7.49;61.30;99665.44;3482773;28;20053;-45
2021/04/29 05:13:42;;;;;;;11.98;8.20;;;;;;;7.54;60.92;99669.03;3477924;28;20147;-45
2021/04/29 05:15:24;;;;;;;11.90;7.55;;;;;;;7.58;60.48;99669.16;3482737;28;20079;-45
2021/04/29 05:17:06;;;;;;;10.80;7.65;;;;;;;7.63;60.66;99679.56;3478118;28;20060;-44
2021/04/29 05:18:49;;;;;;;12.13;7.38;;;;;;;7.66;60.62;99671.91;3479675;28;20045;-44
2021/04/29 05:20:31;;;;;;;12.48;7.78;;;;;;;7.69;60.70;99674.59;3480311;28;20052;-45
2021/04/29 05:22:15;;;;;;;11.52;7.88;;;;;;;7.73;60.60;99671.22;3479453;28;20049;-44
2021/04/29 05:23:56;;;;;;;9.90;7.43;;;;;;;7.77;60.24;99675.63;3482979;28;20056;-46
2021/04/29 05:25:38;;;;;;;14.90;8.02;;;;;;;7.80;59.40;99674.84;3476878;28;20041;-44
2021/04/29 05:27:19;;;;;;;16.13;9.38;;;;;;;7.80;60.89;99667.97;3482689;28;20071;-44
2021/04/29 05:29:01;;;;;;;12.02;7.78;;;;;;;7.83;59.84;99673.22;3479234;28;20052;-45
2021/04/29 05:30:42;;;;;;;9.90;7.50;;;;;;;7.87;59.57;99681.03;3479377;28;20057;-45
2021/04/29 05:32:24;;;;;;;16.27;8.55;;;;;;;7.91;60.17;99682.84;3480041;28;20056;-44
2021/04/29 05:34:06;;;;;;;12.80;9.52;;;;;;;7.94;61.16;99688.09;3479517;28;20041;-45
2021/04/29 05:35:47;;;;;;;13.23;8.73;;;;;;;7.98;60.79;99684.75;3468768;28;20053;-44
2021/04/29 05:37:28;;;;;;;15.25;8.52;;;;;;;7.97;61.04;99686.47;3475297;28;20502;-45
2021/04/29 05:39:10;;;;;;;11.95;8.68;;;;;;;8.03;60.07;99685.75;3482664;28;20115;-45
2021/04/29 05:40:51;;;;;;;11.93;7.93;;;;;;;8.09;58.93;99683.28;3477919;28;20048;-44
2021/04/29 05:42:32;;;;;;;12.77;8.52;;;;;;;8.15;59.56;99680.00;3479119;28;20415;-44
2021/04/29 05:44:14;;;;;;;13.73;8.45;;;;;;;8.22;59.54;99684.47;3479964;28;20063;-44
2021/04/29 05:45:56;;;;;;;12.90;8.50;;;;;;;8.26;59.72;99680.25;3478005;28;20045;-45
2021/04/29 05:47:38;;;;;;;14.43;8.32;;;;;;;8.26;60.21;99688.00;3482012;28;20057;-45
2021/04/29 05:49:19;;;;;;;14.20;8.95;;;;;;;8.27;60.23;99681.97;3479035;28;20052;-44
2021/04/29 05:51:01;;;;;;;13.85;8.63;;;;;;;8.31;59.73;99676.91;3482340;28;20052;-45
2021/04/29 05:52:42;;;;;;;13.30;8.32;;;;;;;8.38;59.83;99673.63;3478941;28;20056;-45
2021/04/29 05:54:24;;;;;;;13.05;9.07;;;;;;;8.47;60.38;99669.53;3480743;28;20048;-46
2021/04/29 05:56:05;;;;;;;10.45;7.68;;;;;;;8.55;59.42;99670.53;3470857;28;20127;-46
2021/04/29 05:57:46;;;;;;;15.45;9.00;;;;;;;8.68;59.84;99679.47;3471623;28;20053;-46
2021/04/29 05:59:28;;;;;;;10.00;7.70;;;;;;;8.83;58.53;99668.53;3482321;28;20049;-45
2021/04/29 06:01:10;;;;;;;17.17;9.70;;;;;;;9.01;58.83;99673.22;3478883;28;20584;-45
2021/04/29 06:02:53;;;;;;;13.43;9.13;;;;;;;9.06;59.09;99671.59;3482384;28;20056;-45
2021/04/29 06:04:34;;;;;;;11.93;9.05;;;;;;;9.11;59.67;99669.97;3472490;28;20151;-45
2021/04/29 06:06:17;;;;;;;10.88;7.30;;;;;;;9.19;57.58;99676.19;3469366;28;20514;-45
2021/04/29 06:07:59;;;;;;;10.90;7.63;;;;;;;9.28;58.00;99673.75;3480968;28;20076;-49
2021/04/29 06:09:41;;;;;;;14.55;8.38;;;;;;;9.37;58.02;99678.25;3478795;28;20564;-45
2021/04/29 06:11:27;;;;;;;13.30;8.20;;;;;;;9.44;57.93;99677.53;3482234;28;20090;-46
2021/04/29 06:13:10;;;;;;;10.07;7.50;;;;;;;9.51;57.22;99681.13;3477678;28;20041;-46
2021/04/29 06:14:51;;;;;;;11.65;8.15;;;;;;;9.58;57.45;99688.16;3481760;28;20065;-49
2021/04/29 06:16:32;;;;;;;13.40;8.60;;;;;;;9.62;56.64;99677.00;3479087;28;20057;-50
2021/04/29 06:18:15;;;;;;;15.00;8.55;;;;;;;9.69;57.22;99681.44;3480101;28;20115;-51
2021/04/29 06:19:56;;;;;;;12.98;8.57;;;;;;;9.75;57.44;99682.38;3481239;28;20049;-49
2021/04/29 06:21:38;;;;;;;13.63;8.90;;;;;;;9.80;57.57;99686.78;3478753;28;20049;-49
2021/04/29 06:23:19;;;;;;;15.73;8.82;;;;;;;9.84;58.24;99687.72;3482113;28;20121;-49
2021/04/29 06:25:01;;;;;;;12.52;8.73;;;;;;;9.86;57.75;99679.13;3478684;28;20549;-50
2021/04/29 06:26:42;;;;;;;11.90;7.78;;;;;;;9.91;57.44;99687.88;3481583;28;20573;-51
2021/04/29 06:28:23;;;;;;;9.02;6.97;;;;;;;10.02;56.24;99692.34;3478243;28;20045;-51
2021/04/29 06:30:07;;;;;;;14.52;9.50;;;;;;;10.09;56.65;99692.47;3480208;28;20056;-50
2021/04/29 06:31:48;;;;;;;15.10;8.95;;;;;;;10.12;57.09;99686.44;3479935;28;20045;-51
2021/04/29 06:33:30;;;;;;;9.25;7.38;;;;;;;10.16;56.43;99679.59;3477410;28;20450;-45
2021/04/29 06:35:12;;;;;;;10.60;7.57;;;;;;;10.21;56.12;99691.78;3482121;28;20398;-45
2021/04/29 06:36:54;;;;;;;12.13;8.90;;;;;;;10.26;57.12;99694.44;3478984;28;20049;-45
2021/04/29 06:38:36;;;;;;;11.82;8.60;;;;;;;10.28;57.11;99690.13;3481332;28;20056;-45
2021/04/29 06:40:18;;;;;;;13.27;8.98;;;;;;;10.35;56.68;99685.94;3478323;28;20049;-45
2021/04/29 06:41:59;;;;;;;11.57;7.80;;;;;;;10.44;55.99;99679.16;3479680;28;20072;-45
2021/04/29 06:44:00;;;;;;;9.57;7.22;;;;;;;10.53;55.57;99681.03;3481048;28;20521;-45
2021/04/29 06:45:41;;;;;;;10.25;7.93;;;;;;;10.58;55.82;99678.47;3475622;28;20045;-45
2021/04/29 06:47:23;;;;;;;11.75;8.32;;;;;;;10.66;55.64;99676.88;3476163;28;20045;-46
2021/04/29 06:49:06;;;;;;;13.48;7.57;;;;;;;10.79;54.75;99677.88;3477011;28;20049;-45
2021/04/29 06:50:48;;;;;;;13.88;8.32;;;;;;;10.94;55.59;99675.50;3479927;28;20506;-45
2021/04/29 06:52:29;;;;;;;11.52;8.20;;;;;;;11.13;54.18;99674.00;3480119;28;20053;-45
2021/04/29 06:54:11;;;;;;;19.52;9.60;;;;;;;11.30;55.75;99666.38;3478798;28;20060;-48
2021/04/29 06:55:52;;;;;;;10.70;8.23;;;;;;;11.52;53.86;99670.09;3480903;28;20572;-49
2021/04/29 06:57:33;;;;;;;14.55;8.27;;;;;;;11.74;52.95;99672.91;3477393;28;20041;-45
2021/04/29 06:59:15;;;;;;;10.13;8.15;;;;;;;11.93;52.94;99673.94;3482374;28;20114;-49
2021/04/29 07:00:56;;;;;;;13.13;9.57;;;;;;;12.04;53.71;99672.28;3479329;28;20045;-48
2021/04/29 07:02:37;;;;;;;15.73;8.63;;;;;;;12.18;52.90;99670.66;3482393;28;20056;-48
2021/04/29 07:04:21;;;;;;;14.98;9.18;;;;;;;12.28;53.22;99671.59;3472964;28;20075;-49
2021/04/29 07:06:03;;;;;;;13.55;9.52;;;;;;;12.42;52.97;99674.28;3472363;28;20106;-48
2021/04/29 07:07:45;;;;;;;15.43;9.90;;;;;;;12.60;52.70;99664.84;3470403;28;20057;-48
2021/04/29 07:09:26;;;;;;;9.75;7.78;;;;;;;12.74;51.20;99666.66;3475464;28;20536;-48
2021/04/29 07:11:07;;;;;;;10.15;8.18;;;;;;;12.93;50.31;99666.78;3484237;28;20118;-50
2021/04/29 07:12:49;;;;;;;11.15;7.10;;;;;;;13.00;49.63;99658.13;3480707;28;20567;-48
2021/04/29 07:14:30;;;;;;;12.32;7.15;;;;;;;13.15;49.26;99678.13;3479266;28;20045;-47
2021/04/29 07:16:12;;;;;;;9.23;6.47;;;;;;;13.25;48.83;99677.31;3482513;28;20057;-48
2021/04/29 07:17:57;;;;;;;11.00;7.43;;;;;;;13.25;49.09;99674.69;3480826;28;20106;-49
2021/04/29 07:19:39;;;;;;;9.48;5.90;;;;;;;13.30;48.43;99674.69;3470570;28;20053;-48
2021/04/29 07:21:20;;;;;;;10.15;6.15;;;;;;;13.30;48.71;99674.69;3472300;28;20077;-49
2021/04/29 07:23:02;;;;;;;8.85;6.07;;;;;;;13.37;48.50;99667.75;3470411;28;20054;-51
2021/04/29 07:24:43;;;;;;;8.85;6.00;;;;;;;13.52;48.03;99673.88;3480604;28;20048;-50
2021/04/29 07:26:26;;;;;;;8.55;6.70;;;;;;;13.60;46.52;99680.84;3481967;28;20502;-49
2021/04/29 07:28:07;;;;;;;17.20;6.72;;;;;;;13.60;46.84;99673.91;3481252;28;20434;-50
2021/04/29 07:29:48;;;;;;;10.65;7.10;;;;;;;13.58;46.14;99673.00;3479491;28;20073;-49
2021/04/29 07:31:30;;;;;;;12.60;6.68;;;;;;;13.61;46.47;99659.97;3483726;28;20098;-50
2021/04/29 07:33:30;;;;;;;11.73;6.95;;;;;;;13.68;47.23;99677.38;3480467;28;20426;-49
2021/04/29 07:35:13;;;;;;;8.48;5.15;;;;;;;13.80;46.44;99660.03;3480828;28;20079;-54
2021/04/29 07:36:57;;;;;;;13.15;6.28;;;;;;;13.96;46.08;99659.13;3481654;28;20049;-50
2021/04/29 07:38:38;;;;;;;12.38;6.43;;;;;;;13.93;46.21;99663.50;3479925;28;20072;-50
2021/04/29 07:40:19;;;;;;;7.03;5.97;;;;;;;13.89;45.75;99668.69;3470041;28;20111;-50
2021/04/29 07:42:01;;;;;;;10.90;5.85;;;;;;;13.86;45.42;99665.22;3476064;28;20407;-49
2021/04/29 07:43:43;;;;;;;10.48;5.05;;;;;;;13.63;45.14;99671.28;3483799;28;20537;-49
2021/04/29 07:45:25;;;;;;;8.93;5.18;;;;;;;13.61;46.53;99664.34;3480315;28;20552;-50
2021/04/29 07:47:06;;;;;;;8.88;5.25;;;;;;;13.73;45.72;99663.50;3482153;28;20049;-51
2021/04/29 07:48:48;;;;;;;6.50;4.65;;;;;;;13.89;46.08;99660.00;3481382;28;20138;-49
2021/04/29 07:50:31;;;;;;;18.25;6.28;;;;;;;13.98;45.73;99654.78;3480300;28;20045;-50
2021/04/29 07:52:13;;;;;;;9.07;6.55;;;;;;;14.01;44.99;99660.00;3483680;28;20049;-51
2021/04/29 07:53:54;;;;;;;10.30;5.55;;;;;;;14.00;45.04;99644.34;3480446;28;20056;-49
2021/04/29 07:55:36;;;;;;;15.57;6.15;;;;;;;14.04;45.26;99660.03;3483578;28;20049;-51
2021/04/29 07:57:19;;;;;;;9.68;6.10;;;;;;;13.88;45.21;99673.91;3480211;28;20040;-49
2021/04/29 07:59:00;;;;;;;11.45;5.75;;;;;;;13.64;45.94;99654.78;3481687;28;20418;-49
2021/04/29 08:00:42;;;;;;;6.10;5.47;;;;;;;13.53;46.18;99653.91;3482119;28;20426;-50
2021/04/29 08:02:24;;;;;;;7.65;5.25;;;;;;;13.56;47.23;99653.03;3480188;28;20049;-51